sensor_id;sensor_type;location;lat;lon;timestamp;temperature;humidity
40287;DHT22;25998;46.604;13.610;2023-05-23T00:00:54;16.30;99.90
40287;DHT22;25998;46.604;13.610;2023-05-23T00:04:07;16.30;99.90
40287;DHT22;25998;46.604;13.610;2023-05-23T00:07:18;16.30;99.90
40287;DHT22;25998;46.604;13.610;2023-05-23T00:10:29;16.30;99.90
40287;DHT22;25998;46.604;13.610;2023-05-23T00:13:41;16.40;99.90
40287;DHT22;25998;46.604;13.610;2023-05-23T00:16:52;16.50;99.90
40287;DHT22;25998;46.604;13.610;2023-05-23T00:20:03;16.50;99.90
40287;DHT22;25998;46.604;13.610;2023-05-23T00:23:14;16.40;99.90
40287;DHT22;25998;46.604;13.610;2023-05-23T00:26:28;16.40;99.90
40287;DHT22;25998;46.604;13.610;2023-05-23T00:29:39;16.50;99.90
40287;DHT22;25998;46.604;13.610;2023-05-23T00:32:50;16.50;99.90
40287;DHT22;25998;46.604;13.610;2023-05-23T00:36:04;16.50;99.90
40287;DHT22;25998;46.604;13.610;2023-05-23T00:39:15;16.30;99.90
40287;DHT22;25998;46.604;13.610;2023-05-23T00:42:29;16.00;99.90
40287;DHT22;25998;46.604;13.610;2023-05-23T00:45:42;15.90;99.90
40287;DHT22;25998;46.604;13.610;2023-05-23T00:48:54;16.00;99.90
40287;DHT22;25998;46.604;13.610;2023-05-23T00:52:05;15.90;99.90
40287;DHT22;25998;46.604;13.610;2023-05-23T00:55:17;15.90;99.90
40287;DHT22;25998;46.604;13.610;2023-05-23T00:58:28;16.00;99.90
40287;DHT22;25998;46.604;13.610;2023-05-23T01:01:39;16.00;99.90
40287;DHT22;25998;46.604;13.610;2023-05-23T01:04:51;16.10;99.90
40287;DHT22;25998;46.604;13.610;2023-05-23T01:08:04;16.20;99.90
40287;DHT22;25998;46.604;13.610;2023-05-23T01:11:32;16.10;99.90
40287;DHT22;25998;46.604;13.610;2023-05-23T01:15:03;16.10;99.90
40287;DHT22;25998;46.604;13.610;2023-05-23T01:18:21;16.10;99.90
40287;DHT22;25998;46.604;13.610;2023-05-23T01:21:35;15.90;99.90
40287;DHT22;25998;46.604;13.610;2023-05-23T01:24:56;15.70;99.90
40287;DHT22;25998;46.604;13.610;2023-05-23T01:28:19;15.60;99.90
40287;DHT22;25998;46.604;13.610;2023-05-23T01:31:31;15.40;99.90
40287;DHT22;25998;46.604;13.610;2023-05-23T01:34:45;15.20;99.90
40287;DHT22;25998;46.604;13.610;2023-05-23T01:37:57;15.10;99.90
40287;DHT22;25998;46.604;13.610;2023-05-23T01:41:08;15.20;99.90
40287;DHT22;25998;46.604;13.610;2023-05-23T01:44:19;15.40;99.90
40287;DHT22;25998;46.604;13.610;2023-05-23T01:47:31;15.30;99.90
40287;DHT22;25998;46.604;13.610;2023-05-23T01:50:43;15.30;99.90
40287;DHT22;25998;46.604;13.610;2023-05-23T01:53:57;15.20;99.90
40287;DHT22;25998;46.604;13.610;2023-05-23T01:57:09;15.40;99.90
40287;DHT22;25998;46.604;13.610;2023-05-23T02:00:20;15.50;99.90
40287;DHT22;25998;46.604;13.610;2023-05-23T02:03:31;15.50;99.90
40287;DHT22;25998;46.604;13.610;2023-05-23T02:06:42;15.10;99.90
40287;DHT22;25998;46.604;13.610;2023-05-23T02:09:54;15.00;99.90
40287;DHT22;25998;46.604;13.610;2023-05-23T02:13:05;14.80;99.90
40287;DHT22;25998;46.604;13.610;2023-05-23T02:16:16;14.80;99.90
40287;DHT22;25998;46.604;13.610;2023-05-23T02:19:27;14.70;99.90
40287;DHT22;25998;46.604;13.610;2023-05-23T02:22:38;14.60;99.90
40287;DHT22;25998;46.604;13.610;2023-05-23T02:25:49;14.60;99.90
40287;DHT22;25998;46.604;13.610;2023-05-23T02:29:00;14.60;99.90
40287;DHT22;25998;46.604;13.610;2023-05-23T02:32:11;14.50;99.90
40287;DHT22;25998;46.604;13.610;2023-05-23T02:35:21;14.70;99.90
40287;DHT22;25998;46.604;13.610;2023-05-23T02:38:32;14.60;99.90
40287;DHT22;25998;46.604;13.610;2023-05-23T02:41:43;14.80;99.90
40287;DHT22;25998;46.604;13.610;2023-05-23T02:44:54;14.90;99.90
40287;DHT22;25998;46.604;13.610;2023-05-23T02:48:05;14.90;99.90
40287;DHT22;25998;46.604;13.610;2023-05-23T02:51:16;14.80;99.90
40287;DHT22;25998;46.604;13.610;2023-05-23T02:54:26;14.60;99.90
40287;DHT22;25998;46.604;13.610;2023-05-23T02:57:37;14.40;99.90
40287;DHT22;25998;46.604;13.610;2023-05-23T03:00:48;14.30;99.90
40287;DHT22;25998;46.604;13.610;2023-05-23T03:03:59;14.20;99.90
40287;DHT22;25998;46.604;13.610;2023-05-23T03:07:10;14.20;99.90
40287;DHT22;25998;46.604;13.610;2023-05-23T03:10:21;14.30;99.90
40287;DHT22;25998;46.604;13.610;2023-05-23T03:13:33;14.50;99.90
40287;DHT22;25998;46.604;13.610;2023-05-23T03:16:44;14.70;99.90
40287;DHT22;25998;46.604;13.610;2023-05-23T03:19:55;14.60;99.90
40287;DHT22;25998;46.604;13.610;2023-05-23T03:23:06;14.50;99.90
40287;DHT22;25998;46.604;13.610;2023-05-23T03:26:17;14.60;99.90
40287;DHT22;25998;46.604;13.610;2023-05-23T03:29:28;14.70;99.90
40287;DHT22;25998;46.604;13.610;2023-05-23T03:32:39;14.80;99.90
40287;DHT22;25998;46.604;13.610;2023-05-23T03:35:50;14.80;99.90
40287;DHT22;25998;46.604;13.610;2023-05-23T03:39:02;14.90;99.90
40287;DHT22;25998;46.604;13.610;2023-05-23T03:42:13;14.80;99.90
40287;DHT22;25998;46.604;13.610;2023-05-23T03:45:24;14.90;99.90
40287;DHT22;25998;46.604;13.610;2023-05-23T03:48:36;14.90;99.90
40287;DHT22;25998;46.604;13.610;2023-05-23T03:51:46;14.60;99.90
40287;DHT22;25998;46.604;13.610;2023-05-23T03:54:57;14.30;99.90
40287;DHT22;25998;46.604;13.610;2023-05-23T03:58:08;14.20;99.90
40287;DHT22;25998;46.604;13.610;2023-05-23T04:01:22;14.10;99.90
40287;DHT22;25998;46.604;13.610;2023-05-23T04:04:33;14.10;99.90
40287;DHT22;25998;46.604;13.610;2023-05-23T04:07:44;14.20;99.90
40287;DHT22;25998;46.604;13.610;2023-05-23T04:10:55;14.20;99.90
40287;DHT22;25998;46.604;13.610;2023-05-23T04:14:06;14.20;99.90
40287;DHT22;25998;46.604;13.610;2023-05-23T04:17:17;14.20;99.90
40287;DHT22;25998;46.604;13.610;2023-05-23T04:20:29;14.20;99.90
40287;DHT22;25998;46.604;13.610;2023-05-23T04:23:40;14.40;99.90
40287;DHT22;25998;46.604;13.610;2023-05-23T04:26:51;14.50;99.90
40287;DHT22;25998;46.604;13.610;2023-05-23T04:30:02;14.40;99.90
40287;DHT22;25998;46.604;13.610;2023-05-23T04:33:12;14.50;99.90
40287;DHT22;25998;46.604;13.610;2023-05-23T04:36:23;14.60;99.90
40287;DHT22;25998;46.604;13.610;2023-05-23T04:39:35;14.60;99.90
40287;DHT22;25998;46.604;13.610;2023-05-23T04:42:46;14.60;99.90
40287;DHT22;25998;46.604;13.610;2023-05-23T04:46:00;14.50;99.90
40287;DHT22;25998;46.604;13.610;2023-05-23T04:49:11;14.50;99.90
40287;DHT22;25998;46.604;13.610;2023-05-23T04:52:22;14.40;99.90
40287;DHT22;25998;46.604;13.610;2023-05-23T04:55:33;14.40;99.90
40287;DHT22;25998;46.604;13.610;2023-05-23T04:58:44;14.30;99.90
40287;DHT22;25998;46.604;13.610;2023-05-23T05:01:55;14.30;99.90
40287;DHT22;25998;46.604;13.610;2023-05-23T05:05:06;14.40;99.90
40287;DHT22;25998;46.604;13.610;2023-05-23T05:08:17;14.30;99.90
40287;DHT22;25998;46.604;13.610;2023-05-23T05:11:29;14.40;99.90
40287;DHT22;25998;46.604;13.610;2023-05-23T05:14:40;14.40;99.90
40287;DHT22;25998;46.604;13.610;2023-05-23T05:17:51;14.40;99.90
40287;DHT22;25998;46.604;13.610;2023-05-23T05:21:02;14.40;99.90
40287;DHT22;25998;46.604;13.610;2023-05-23T05:24:13;14.40;99.90
40287;DHT22;25998;46.604;13.610;2023-05-23T05:27:25;14.50;99.90
40287;DHT22;25998;46.604;13.610;2023-05-23T05:30:36;14.70;99.90
40287;DHT22;25998;46.604;13.610;2023-05-23T05:33:47;14.80;99.90
40287;DHT22;25998;46.604;13.610;2023-05-23T05:36:57;14.90;99.90
40287;DHT22;25998;46.604;13.610;2023-05-23T05:40:08;15.00;99.90
40287;DHT22;25998;46.604;13.610;2023-05-23T05:43:19;15.30;99.90
40287;DHT22;25998;46.604;13.610;2023-05-23T05:46:31;15.50;99.90
40287;DHT22;25998;46.604;13.610;2023-05-23T05:49:42;15.70;99.90
40287;DHT22;25998;46.604;13.610;2023-05-23T05:52:53;16.30;99.90
40287;DHT22;25998;46.604;13.610;2023-05-23T05:56:04;17.00;99.90
40287;DHT22;25998;46.604;13.610;2023-05-23T05:59:15;17.60;99.90
40287;DHT22;25998;46.604;13.610;2023-05-23T06:02:26;18.00;99.90
40287;DHT22;25998;46.604;13.610;2023-05-23T06:05:37;18.20;99.90
40287;DHT22;25998;46.604;13.610;2023-05-23T06:08:49;18.40;99.90
40287;DHT22;25998;46.604;13.610;2023-05-23T06:12:00;18.30;99.90
40287;DHT22;25998;46.604;13.610;2023-05-23T06:15:12;18.30;99.90
40287;DHT22;25998;46.604;13.610;2023-05-23T06:18:24;18.50;99.90
40287;DHT22;25998;46.604;13.610;2023-05-23T06:21:34;19.00;99.90
40287;DHT22;25998;46.604;13.610;2023-05-23T06:24:45;19.60;99.90
40287;DHT22;25998;46.604;13.610;2023-05-23T06:27:56;20.10;99.90
40287;DHT22;25998;46.604;13.610;2023-05-23T06:31:07;20.60;99.90
40287;DHT22;25998;46.604;13.610;2023-05-23T06:34:21;21.10;99.90
40287;DHT22;25998;46.604;13.610;2023-05-23T06:37:32;21.30;98.50
40287;DHT22;25998;46.604;13.610;2023-05-23T06:40:44;21.40;98.50
40287;DHT22;25998;46.604;13.610;2023-05-23T06:43:54;21.50;98.40
40287;DHT22;25998;46.604;13.610;2023-05-23T06:47:05;21.70;98.50
40287;DHT22;25998;46.604;13.610;2023-05-23T06:50:16;22.10;99.10
40287;DHT22;25998;46.604;13.610;2023-05-23T06:53:30;22.40;98.10
40287;DHT22;25998;46.604;13.610;2023-05-23T06:56:41;22.80;98.20
40287;DHT22;25998;46.604;13.610;2023-05-23T06:59:52;22.80;97.70
40287;DHT22;25998;46.604;13.610;2023-05-23T07:03:04;22.50;98.70
40287;DHT22;25998;46.604;13.610;2023-05-23T07:06:16;22.50;99.60
40287;DHT22;25998;46.604;13.610;2023-05-23T07:09:27;22.70;98.90
40287;DHT22;25998;46.604;13.610;2023-05-23T07:12:38;22.90;97.70
40287;DHT22;25998;46.604;13.610;2023-05-23T07:15:49;22.80;97.20
40287;DHT22;25998;46.604;13.610;2023-05-23T07:19:00;22.80;98.10
40287;DHT22;25998;46.604;13.610;2023-05-23T07:22:12;22.80;97.90
40287;DHT22;25998;46.604;13.610;2023-05-23T07:25:23;23.10;98.20
40287;DHT22;25998;46.604;13.610;2023-05-23T07:28:35;23.40;98.10
40287;DHT22;25998;46.604;13.610;2023-05-23T07:31:47;23.50;98.40
40287;DHT22;25998;46.604;13.610;2023-05-23T07:34:58;23.70;97.30
40287;DHT22;25998;46.604;13.610;2023-05-23T07:38:08;24.10;96.70
40287;DHT22;25998;46.604;13.610;2023-05-23T07:41:19;24.10;96.40
40287;DHT22;25998;46.604;13.610;2023-05-23T07:44:30;23.90;96.80
40287;DHT22;25998;46.604;13.610;2023-05-23T07:47:41;24.10;96.30
40287;DHT22;25998;46.604;13.610;2023-05-23T07:50:52;24.40;96.00
40287;DHT22;25998;46.604;13.610;2023-05-23T07:54:05;24.80;96.20
40287;DHT22;25998;46.604;13.610;2023-05-23T07:57:15;25.00;95.10
40287;DHT22;25998;46.604;13.610;2023-05-23T08:00:26;25.20;95.00
40287;DHT22;25998;46.604;13.610;2023-05-23T08:03:37;24.90;96.30
40287;DHT22;25998;46.604;13.610;2023-05-23T08:06:48;24.60;95.00
40287;DHT22;25998;46.604;13.610;2023-05-23T08:09:59;24.60;95.70
40287;DHT22;25998;46.604;13.610;2023-05-23T08:13:10;24.60;94.80
40287;DHT22;25998;46.604;13.610;2023-05-23T08:16:21;24.70;95.60
40287;DHT22;25998;46.604;13.610;2023-05-23T08:19:32;25.00;95.70
40287;DHT22;25998;46.604;13.610;2023-05-23T08:22:43;25.20;95.00
40287;DHT22;25998;46.604;13.610;2023-05-23T08:25:54;24.90;95.30
40287;DHT22;25998;46.604;13.610;2023-05-23T08:29:07;25.10;95.70
40287;DHT22;25998;46.604;13.610;2023-05-23T08:32:19;25.20;94.40
40287;DHT22;25998;46.604;13.610;2023-05-23T08:35:30;25.10;94.20
40287;DHT22;25998;46.604;13.610;2023-05-23T08:38:45;25.20;93.80
40287;DHT22;25998;46.604;13.610;2023-05-23T08:41:56;25.20;93.30
40287;DHT22;25998;46.604;13.610;2023-05-23T08:45:08;25.30;93.70
40287;DHT22;25998;46.604;13.610;2023-05-23T08:48:20;25.60;93.90
40287;DHT22;25998;46.604;13.610;2023-05-23T08:51:31;26.00;92.90
40287;DHT22;25998;46.604;13.610;2023-05-23T08:54:42;26.00;93.00
40287;DHT22;25998;46.604;13.610;2023-05-23T08:57:57;26.00;92.20
40287;DHT22;25998;46.604;13.610;2023-05-23T09:01:13;26.30;92.50
40287;DHT22;25998;46.604;13.610;2023-05-23T09:04:24;26.20;92.40
40287;DHT22;25998;46.604;13.610;2023-05-23T09:07:35;26.50;91.60
40287;DHT22;25998;46.604;13.610;2023-05-23T09:10:50;26.60;91.20
40287;DHT22;25998;46.604;13.610;2023-05-23T09:14:01;26.80;92.00
40287;DHT22;25998;46.604;13.610;2023-05-23T09:17:18;27.10;93.20
40287;DHT22;25998;46.604;13.610;2023-05-23T09:20:30;27.20;91.00
40287;DHT22;25998;46.604;13.610;2023-05-23T09:23:41;27.30;90.40
40287;DHT22;25998;46.604;13.610;2023-05-23T09:26:52;27.50;90.60
40287;DHT22;25998;46.604;13.610;2023-05-23T09:30:07;27.10;90.10
40287;DHT22;25998;46.604;13.610;2023-05-23T09:33:19;26.90;90.60
40287;DHT22;25998;46.604;13.610;2023-05-23T09:36:31;27.10;90.50
40287;DHT22;25998;46.604;13.610;2023-05-23T09:39:47;27.10;90.40
40287;DHT22;25998;46.604;13.610;2023-05-23T09:43:03;27.20;90.20
40287;DHT22;25998;46.604;13.610;2023-05-23T09:46:14;27.10;90.50
40287;DHT22;25998;46.604;13.610;2023-05-23T09:49:25;27.40;86.60
40287;DHT22;25998;46.604;13.610;2023-05-23T09:52:37;27.70;88.40
40287;DHT22;25998;46.604;13.610;2023-05-23T09:55:50;27.90;87.60
40287;DHT22;25998;46.604;13.610;2023-05-23T09:59:02;27.40;87.60
40287;DHT22;25998;46.604;13.610;2023-05-23T10:02:15;27.30;87.20
40287;DHT22;25998;46.604;13.610;2023-05-23T10:08:56;28.30;88.80
40287;DHT22;25998;46.604;13.610;2023-05-23T10:15:48;27.70;87.80
40287;DHT22;25998;46.604;13.610;2023-05-23T10:19:05;27.60;87.30
40287;DHT22;25998;46.604;13.610;2023-05-23T10:22:18;27.90;90.60
40287;DHT22;25998;46.604;13.610;2023-05-23T10:25:30;28.40;88.80
40287;DHT22;25998;46.604;13.610;2023-05-23T10:28:41;28.60;90.30
40287;DHT22;25998;46.604;13.610;2023-05-23T10:31:54;28.40;88.80
40287;DHT22;25998;46.604;13.610;2023-05-23T10:35:15;28.30;88.90
40287;DHT22;25998;46.604;13.610;2023-05-23T10:38:54;28.20;89.10
40287;DHT22;25998;46.604;13.610;2023-05-23T10:42:18;28.30;87.40
40287;DHT22;25998;46.604;13.610;2023-05-23T10:45:39;28.70;90.50
40287;DHT22;25998;46.604;13.610;2023-05-23T10:48:55;28.60;88.50
40287;DHT22;25998;46.604;13.610;2023-05-23T10:52:16;28.70;87.20
40287;DHT22;25998;46.604;13.610;2023-05-23T10:55:30;28.80;86.90
40287;DHT22;25998;46.604;13.610;2023-05-23T10:58:44;29.00;83.60
40287;DHT22;25998;46.604;13.610;2023-05-23T11:01:55;29.10;83.10
40287;DHT22;25998;46.604;13.610;2023-05-23T11:05:19;29.10;83.40
40287;DHT22;25998;46.604;13.610;2023-05-23T11:08:39;28.80;85.80
40287;DHT22;25998;46.604;13.610;2023-05-23T11:11:53;28.90;89.80
40287;DHT22;25998;46.604;13.610;2023-05-23T11:18:27;29.10;86.40
40287;DHT22;25998;46.604;13.610;2023-05-23T11:21:41;29.60;85.30
40287;DHT22;25998;46.604;13.610;2023-05-23T11:24:54;29.10;83.40
40287;DHT22;25998;46.604;13.610;2023-05-23T11:28:05;28.90;83.10
40287;DHT22;25998;46.604;13.610;2023-05-23T11:31:16;28.50;84.00
40287;DHT22;25998;46.604;13.610;2023-05-23T11:34:27;27.90;85.70
40287;DHT22;25998;46.604;13.610;2023-05-23T11:37:38;27.70;87.90
40287;DHT22;25998;46.604;13.610;2023-05-23T11:40:49;27.60;92.50
40287;DHT22;25998;46.604;13.610;2023-05-23T11:44:00;27.00;95.00
40287;DHT22;25998;46.604;13.610;2023-05-23T11:47:11;26.70;97.00
40287;DHT22;25998;46.604;13.610;2023-05-23T11:50:22;26.40;98.40
40287;DHT22;25998;46.604;13.610;2023-05-23T11:53:36;25.80;99.10
40287;DHT22;25998;46.604;13.610;2023-05-23T11:56:48;25.30;99.50
40287;DHT22;25998;46.604;13.610;2023-05-23T11:59:59;25.70;99.50
40287;DHT22;25998;46.604;13.610;2023-05-23T12:03:12;26.40;98.70
40287;DHT22;25998;46.604;13.610;2023-05-23T12:06:24;26.90;95.20
40287;DHT22;25998;46.604;13.610;2023-05-23T12:09:45;27.40;95.50
40287;DHT22;25998;46.604;13.610;2023-05-23T12:12:56;27.70;94.60
40287;DHT22;25998;46.604;13.610;2023-05-23T12:16:08;27.90;92.50
40287;DHT22;25998;46.604;13.610;2023-05-23T12:19:20;28.00;93.10
40287;DHT22;25998;46.604;13.610;2023-05-23T12:22:31;28.10;92.80
40287;DHT22;25998;46.604;13.610;2023-05-23T12:25:42;27.90;94.00
40287;DHT22;25998;46.604;13.610;2023-05-23T12:28:53;27.70;94.20
40287;DHT22;25998;46.604;13.610;2023-05-23T12:32:05;27.70;94.40
40287;DHT22;25998;46.604;13.610;2023-05-23T12:35:17;27.60;94.80
40287;DHT22;25998;46.604;13.610;2023-05-23T12:38:27;27.70;90.10
40287;DHT22;25998;46.604;13.610;2023-05-23T12:41:41;28.00;89.70
40287;DHT22;25998;46.604;13.610;2023-05-23T12:44:53;28.30;88.80
40287;DHT22;25998;46.604;13.610;2023-05-23T12:48:04;28.50;86.70
40287;DHT22;25998;46.604;13.610;2023-05-23T12:51:17;28.50;88.60
40287;DHT22;25998;46.604;13.610;2023-05-23T12:54:31;28.50;89.10
40287;DHT22;25998;46.604;13.610;2023-05-23T12:57:42;28.20;87.70
40287;DHT22;25998;46.604;13.610;2023-05-23T13:00:54;27.70;88.30
40287;DHT22;25998;46.604;13.610;2023-05-23T13:04:04;27.50;88.10
40287;DHT22;25998;46.604;13.610;2023-05-23T13:07:16;27.50;87.20
40287;DHT22;25998;46.604;13.610;2023-05-23T13:10:26;27.70;85.30
40287;DHT22;25998;46.604;13.610;2023-05-23T13:13:38;27.50;85.80
40287;DHT22;25998;46.604;13.610;2023-05-23T13:16:48;26.80;87.30
40287;DHT22;25998;46.604;13.610;2023-05-23T13:19:59;26.30;86.70
40287;DHT22;25998;46.604;13.610;2023-05-23T13:23:11;26.00;86.80
40287;DHT22;25998;46.604;13.610;2023-05-23T13:26:22;25.60;89.70
40287;DHT22;25998;46.604;13.610;2023-05-23T13:29:33;24.90;90.10
40287;DHT22;25998;46.604;13.610;2023-05-23T13:32:44;24.00;93.40
40287;DHT22;25998;46.604;13.610;2023-05-23T13:35:55;22.90;97.20
40287;DHT22;25998;46.604;13.610;2023-05-23T13:39:06;20.80;96.10
40287;DHT22;25998;46.604;13.610;2023-05-23T13:42:17;20.30;97.40
40287;DHT22;25998;46.604;13.610;2023-05-23T13:45:28;19.70;98.70
40287;DHT22;25998;46.604;13.610;2023-05-23T13:48:40;18.70;99.90
40287;DHT22;25998;46.604;13.610;2023-05-23T13:51:51;18.30;99.90
40287;DHT22;25998;46.604;13.610;2023-05-23T13:55:03;18.30;99.90
40287;DHT22;25998;46.604;13.610;2023-05-23T13:58:14;18.70;99.90
40287;DHT22;25998;46.604;13.610;2023-05-23T14:01:25;18.70;99.90
40287;DHT22;25998;46.604;13.610;2023-05-23T14:04:36;18.80;99.90
40287;DHT22;25998;46.604;13.610;2023-05-23T14:07:47;18.80;99.90
40287;DHT22;25998;46.604;13.610;2023-05-23T14:11:01;18.60;99.90
40287;DHT22;25998;46.604;13.610;2023-05-23T14:14:11;18.70;99.90
40287;DHT22;25998;46.604;13.610;2023-05-23T14:17:22;18.80;99.90
40287;DHT22;25998;46.604;13.610;2023-05-23T14:20:33;18.70;99.90
40287;DHT22;25998;46.604;13.610;2023-05-23T14:23:44;18.80;99.90
40287;DHT22;25998;46.604;13.610;2023-05-23T14:26:55;18.80;99.90
40287;DHT22;25998;46.604;13.610;2023-05-23T14:30:08;18.60;99.90
40287;DHT22;25998;46.604;13.610;2023-05-23T14:33:19;18.50;99.90
40287;DHT22;25998;46.604;13.610;2023-05-23T14:36:30;18.70;99.90
40287;DHT22;25998;46.604;13.610;2023-05-23T14:39:41;18.70;99.90
40287;DHT22;25998;46.604;13.610;2023-05-23T14:42:52;18.70;99.90
40287;DHT22;25998;46.604;13.610;2023-05-23T14:46:03;18.50;99.90
40287;DHT22;25998;46.604;13.610;2023-05-23T14:49:15;18.10;99.90
40287;DHT22;25998;46.604;13.610;2023-05-23T14:52:26;18.20;99.90
40287;DHT22;25998;46.604;13.610;2023-05-23T14:55:37;18.20;99.90
40287;DHT22;25998;46.604;13.610;2023-05-23T14:58:48;17.90;99.90
40287;DHT22;25998;46.604;13.610;2023-05-23T15:01:59;18.10;99.90
40287;DHT22;25998;46.604;13.610;2023-05-23T15:05:09;18.00;99.90
40287;DHT22;25998;46.604;13.610;2023-05-23T15:08:20;17.40;99.90
40287;DHT22;25998;46.604;13.610;2023-05-23T15:11:31;17.40;99.90
40287;DHT22;25998;46.604;13.610;2023-05-23T15:14:44;17.60;99.90
40287;DHT22;25998;46.604;13.610;2023-05-23T15:17:55;17.70;99.90
40287;DHT22;25998;46.604;13.610;2023-05-23T15:21:06;17.70;99.90
40287;DHT22;25998;46.604;13.610;2023-05-23T15:24:16;17.60;99.90
40287;DHT22;25998;46.604;13.610;2023-05-23T15:27:27;17.70;99.90
40287;DHT22;25998;46.604;13.610;2023-05-23T15:30:38;17.70;99.90
40287;DHT22;25998;46.604;13.610;2023-05-23T15:33:49;17.80;99.90
40287;DHT22;25998;46.604;13.610;2023-05-23T15:37:00;17.90;99.90
40287;DHT22;25998;46.604;13.610;2023-05-23T15:40:11;18.10;99.90
40287;DHT22;25998;46.604;13.610;2023-05-23T15:43:22;17.80;99.90
40287;DHT22;25998;46.604;13.610;2023-05-23T15:46:34;17.90;99.90
40287;DHT22;25998;46.604;13.610;2023-05-23T15:49:46;18.10;99.90
40287;DHT22;25998;46.604;13.610;2023-05-23T15:52:57;18.00;99.90
40287;DHT22;25998;46.604;13.610;2023-05-23T15:56:08;18.10;99.90
40287;DHT22;25998;46.604;13.610;2023-05-23T15:59:19;17.90;99.90
40287;DHT22;25998;46.604;13.610;2023-05-23T16:02:30;17.70;99.90
40287;DHT22;25998;46.604;13.610;2023-05-23T16:05:41;17.60;99.90
40287;DHT22;25998;46.604;13.610;2023-05-23T16:08:52;17.80;99.90
40287;DHT22;25998;46.604;13.610;2023-05-23T16:12:03;17.70;99.90
40287;DHT22;25998;46.604;13.610;2023-05-23T16:15:14;17.70;99.90
40287;DHT22;25998;46.604;13.610;2023-05-23T16:18:25;17.80;99.90
40287;DHT22;25998;46.604;13.610;2023-05-23T16:21:36;17.90;99.90
40287;DHT22;25998;46.604;13.610;2023-05-23T16:24:46;18.00;99.90
40287;DHT22;25998;46.604;13.610;2023-05-23T16:27:57;18.00;99.90
40287;DHT22;25998;46.604;13.610;2023-05-23T16:31:12;18.00;99.90
40287;DHT22;25998;46.604;13.610;2023-05-23T16:34:23;17.80;99.90
40287;DHT22;25998;46.604;13.610;2023-05-23T16:37:34;17.80;99.90
40287;DHT22;25998;46.604;13.610;2023-05-23T16:40:45;17.90;99.90
40287;DHT22;25998;46.604;13.610;2023-05-23T16:43:56;17.80;99.90
40287;DHT22;25998;46.604;13.610;2023-05-23T16:47:07;17.90;99.90
40287;DHT22;25998;46.604;13.610;2023-05-23T16:50:18;17.90;99.90
40287;DHT22;25998;46.604;13.610;2023-05-23T16:53:32;17.80;99.90
40287;DHT22;25998;46.604;13.610;2023-05-23T16:56:42;17.80;99.90
40287;DHT22;25998;46.604;13.610;2023-05-23T16:59:53;17.70;99.90
40287;DHT22;25998;46.604;13.610;2023-05-23T17:03:04;17.60;99.90
40287;DHT22;25998;46.604;13.610;2023-05-23T17:06:15;17.40;99.90
40287;DHT22;25998;46.604;13.610;2023-05-23T17:09:26;17.30;99.90
40287;DHT22;25998;46.604;13.610;2023-05-23T17:12:37;17.30;99.90
40287;DHT22;25998;46.604;13.610;2023-05-23T17:15:48;17.30;99.90
40287;DHT22;25998;46.604;13.610;2023-05-23T17:19:01;17.40;99.90
40287;DHT22;25998;46.604;13.610;2023-05-23T17:22:12;17.40;99.90
40287;DHT22;25998;46.604;13.610;2023-05-23T17:25:23;17.40;99.90
40287;DHT22;25998;46.604;13.610;2023-05-23T17:28:34;17.50;99.90
40287;DHT22;25998;46.604;13.610;2023-05-23T17:31:45;17.50;99.90
40287;DHT22;25998;46.604;13.610;2023-05-23T17:34:56;17.50;99.90
40287;DHT22;25998;46.604;13.610;2023-05-23T17:38:08;17.40;99.90
40287;DHT22;25998;46.604;13.610;2023-05-23T17:41:22;17.30;99.90
40287;DHT22;25998;46.604;13.610;2023-05-23T17:44:32;17.40;99.90
40287;DHT22;25998;46.604;13.610;2023-05-23T17:47:43;17.40;99.90
40287;DHT22;25998;46.604;13.610;2023-05-23T17:50:54;17.50;99.90
40287;DHT22;25998;46.604;13.610;2023-05-23T17:54:05;17.60;99.90
40287;DHT22;25998;46.604;13.610;2023-05-23T17:57:16;17.70;99.90
40287;DHT22;25998;46.604;13.610;2023-05-23T18:00:27;17.60;99.90
40287;DHT22;25998;46.604;13.610;2023-05-23T18:03:38;17.50;99.90
40287;DHT22;25998;46.604;13.610;2023-05-23T18:06:49;17.40;99.90
40287;DHT22;25998;46.604;13.610;2023-05-23T18:10:00;17.30;99.90
40287;DHT22;25998;46.604;13.610;2023-05-23T18:13:11;17.30;99.90
40287;DHT22;25998;46.604;13.610;2023-05-23T18:16:22;17.30;99.90
40287;DHT22;25998;46.604;13.610;2023-05-23T18:19:34;17.30;99.90
40287;DHT22;25998;46.604;13.610;2023-05-23T18:22:44;17.20;99.90
40287;DHT22;25998;46.604;13.610;2023-05-23T18:25:56;17.20;99.90
40287;DHT22;25998;46.604;13.610;2023-05-23T18:29:10;17.10;99.90
40287;DHT22;25998;46.604;13.610;2023-05-23T18:32:21;17.10;99.90
40287;DHT22;25998;46.604;13.610;2023-05-23T18:35:33;17.00;99.90
40287;DHT22;25998;46.604;13.610;2023-05-23T18:38:43;17.00;99.90
40287;DHT22;25998;46.604;13.610;2023-05-23T18:41:55;16.80;99.90
40287;DHT22;25998;46.604;13.610;2023-05-23T18:45:06;16.70;99.90
40287;DHT22;25998;46.604;13.610;2023-05-23T18:48:17;16.60;99.90
40287;DHT22;25998;46.604;13.610;2023-05-23T18:51:28;16.50;99.90
40287;DHT22;25998;46.604;13.610;2023-05-23T18:54:39;16.60;99.90
40287;DHT22;25998;46.604;13.610;2023-05-23T18:57:51;16.50;99.90
40287;DHT22;25998;46.604;13.610;2023-05-23T19:01:03;16.60;99.90
40287;DHT22;25998;46.604;13.610;2023-05-23T19:04:14;16.70;99.90
40287;DHT22;25998;46.604;13.610;2023-05-23T19:07:25;16.60;99.90
40287;DHT22;25998;46.604;13.610;2023-05-23T19:10:36;16.60;99.90
40287;DHT22;25998;46.604;13.610;2023-05-23T19:13:46;16.70;99.90
40287;DHT22;25998;46.604;13.610;2023-05-23T19:16:58;16.70;99.90
40287;DHT22;25998;46.604;13.610;2023-05-23T19:20:10;16.60;99.90
40287;DHT22;25998;46.604;13.610;2023-05-23T19:23:21;16.60;99.90
40287;DHT22;25998;46.604;13.610;2023-05-23T19:26:32;16.30;99.90
40287;DHT22;25998;46.604;13.610;2023-05-23T19:29:43;16.10;99.90
40287;DHT22;25998;46.604;13.610;2023-05-23T19:32:55;16.20;99.90
40287;DHT22;25998;46.604;13.610;2023-05-23T19:36:06;16.20;99.90
40287;DHT22;25998;46.604;13.610;2023-05-23T19:39:19;16.30;99.90
40287;DHT22;25998;46.604;13.610;2023-05-23T19:42:31;16.10;99.90
40287;DHT22;25998;46.604;13.610;2023-05-23T19:45:42;16.20;99.90
40287;DHT22;25998;46.604;13.610;2023-05-23T19:48:54;16.10;99.90
40287;DHT22;25998;46.604;13.610;2023-05-23T19:52:07;16.10;99.90
40287;DHT22;25998;46.604;13.610;2023-05-23T19:55:18;16.10;99.90
40287;DHT22;25998;46.604;13.610;2023-05-23T19:58:29;16.10;99.90
40287;DHT22;25998;46.604;13.610;2023-05-23T20:01:39;16.20;99.90